Time;durP1;ratioP1;P1;durP2;ratioP2;P2;SDS_P1;SDS_P2;PMS_P1;PMS_P2;Temp;Humidity;BMP_temperature;BMP_pressure;BME280_temperature;BME280_humidity;BME280_pressure;Samples;Min_cycle;Max_cycle;Signal;HPM_P1;HPM_P2
2022/02/14 00:02:19;;;;;;;8.80;4.93;;;;;;;10.35;35.37;96840.13;5114822;28;20197;-68
2022/02/14 00:04:45;;;;;;;6.90;4.97;;;;;;;10.27;35.72;96833.06;5112530;28;20220;-68
2022/02/14 00:07:10;;;;;;;7.20;4.90;;;;;;;10.26;35.68;96830.59;5114668;28;20210;-68
2022/02/14 00:09:35;;;;;;;6.47;4.97;;;;;;;10.37;35.55;96832.09;5095922;28;20235;-68
2022/02/14 00:12:01;;;;;;;8.30;4.93;;;;;;;10.38;35.39;96828.53;5114875;28;20184;-69
2022/02/14 00:14:27;;;;;;;5.60;4.60;;;;;;;10.43;35.44;96824.44;5113130;28;20219;-69
2022/02/14 00:16:54;;;;;;;6.17;4.97;;;;;;;10.28;35.60;96832.09;5114474;28;20266;-69
2022/02/14 00:19:20;;;;;;;8.10;4.97;;;;;;;10.38;35.59;96818.88;5113871;28;20458;-68
2022/02/14 00:21:47;;;;;;;8.77;4.80;;;;;;;10.36;35.46;96820.81;5113856;28;20435;-68
2022/02/14 00:24:13;;;;;;;10.60;5.40;;;;;;;10.26;35.54;96807.84;5114162;28;20191;-68
2022/02/14 00:26:38;;;;;;;6.90;5.07;;;;;;;10.28;35.52;96813.75;5114137;28;20416;-67
2022/02/14 00:29:04;;;;;;;8.33;4.97;;;;;;;10.30;36.01;96806.56;5112951;28;20806;-68
2022/02/14 00:31:30;;;;;;;5.70;5.10;;;;;;;10.28;35.92;96803.28;5114114;28;20202;-68
2022/02/14 00:33:55;;;;;;;6.77;5.17;;;;;;;10.35;35.69;96798.22;5114149;28;20682;-68
2022/02/14 00:36:20;;;;;;;7.73;4.90;;;;;;;10.20;35.48;96795.41;5114437;28;20180;-68
2022/02/14 00:38:46;;;;;;;6.27;4.70;;;;;;;10.15;35.95;96800.28;5113941;28;20287;-68
2022/02/14 00:41:11;;;;;;;11.10;4.90;;;;;;;10.18;36.08;96797.34;5114909;28;20636;-68
2022/02/14 00:43:37;;;;;;;6.73;4.90;;;;;;;10.21;35.93;96783.91;5114682;28;20189;-68
2022/02/14 00:46:02;;;;;;;7.27;5.40;;;;;;;10.20;35.40;96784.94;5114963;28;20177;-68
2022/02/14 00:48:28;;;;;;;9.93;4.97;;;;;;;10.15;35.99;96782.75;5114072;28;20207;-68
2022/02/14 00:50:53;;;;;;;7.53;4.80;;;;;;;9.98;35.70;96784.53;5114648;28;20271;-68
2022/02/14 00:53:19;;;;;;;7.00;4.60;;;;;;;10.04;35.98;96783.06;5114094;28;20176;-68
2022/02/14 00:55:45;;;;;;;8.77;5.20;;;;;;;10.06;35.58;96775.06;5115070;28;20251;-68
2022/02/14 00:58:11;;;;;;;8.00;4.97;;;;;;;10.08;35.83;96773.13;5114378;28;20199;-68
2022/02/14 01:00:36;;;;;;;6.70;4.80;;;;;;;10.21;36.11;96778.69;5114349;28;20456;-69
2022/02/14 01:03:02;;;;;;;10.80;4.67;;;;;;;10.12;36.00;96771.78;5114306;28;20651;-68
2022/02/14 01:05:28;;;;;;;10.00;5.00;;;;;;;10.03;35.57;96768.31;5114711;28;20576;-68
2022/02/14 01:07:54;;;;;;;7.60;4.97;;;;;;;10.12;35.62;96762.16;5114739;28;20175;-68
2022/02/14 01:10:19;;;;;;;7.80;5.07;;;;;;;9.99;35.22;96757.38;5114577;28;20536;-68
2022/02/14 01:12:45;;;;;;;6.70;4.57;;;;;;;10.03;35.38;96754.44;5114340;28;20188;-68
2022/02/14 01:15:10;;;;;;;7.33;5.20;;;;;;;9.94;35.65;96758.81;5114038;28;20173;-69
2022/02/14 01:17:37;;;;;;;5.67;4.53;;;;;;;10.01;35.38;96759.84;5113088;27;20184;-68
2022/02/14 01:20:06;;;;;;;6.73;4.77;;;;;;;9.81;35.95;96754.06;5113072;28;20229;-68
2022/02/14 01:22:31;;;;;;;4.90;4.10;;;;;;;9.95;35.30;96750.00;5115934;27;20422;-68
2022/02/14 01:24:57;;;;;;;6.87;4.60;;;;;;;9.86;35.63;96746.53;5113214;28;20815;-69
2022/02/14 01:27:23;;;;;;;6.47;4.43;;;;;;;10.02;35.83;96739.69;5113321;28;20180;-68
2022/02/14 01:29:49;;;;;;;6.77;4.60;;;;;;;10.10;35.07;96744.94;5112698;28;20197;-68
2022/02/14 01:32:17;;;;;;;8.23;4.30;;;;;;;10.13;34.89;96731.53;5113140;28;20176;-68
2022/02/14 01:34:42;;;;;;;7.27;4.83;;;;;;;10.09;34.75;96733.66;5112996;28;20722;-68
2022/02/14 01:37:08;;;;;;;8.30;4.60;;;;;;;10.09;35.07;96738.06;5113049;28;20406;-68
2022/02/14 01:39:33;;;;;;;6.23;4.63;;;;;;;10.05;34.81;96728.91;5112167;28;20234;-68
2022/02/14 01:41:59;;;;;;;5.43;4.20;;;;;;;10.04;34.70;96732.50;5112950;28;20187;-68
2022/02/14 01:44:38;;;;;;;7.50;4.57;;;;;;;9.87;35.10;96722.00;5094529;28;20184;-69
2022/02/14 01:47:09;;;;;;;5.80;4.40;;;;;;;9.86;34.56;96717.72;5104808;28;20187;-68
2022/02/14 01:49:34;;;;;;;6.60;4.60;;;;;;;9.79;35.56;96711.50;5112440;28;20463;-68
2022/02/14 01:51:59;;;;;;;5.20;4.00;;;;;;;9.78;35.04;96713.28;5112361;28;20510;-68
2022/02/14 01:54:25;;;;;;;5.20;4.13;;;;;;;9.90;35.03;96705.13;5094473;28;20186;-69
2022/02/14 01:56:50;;;;;;;10.57;4.70;;;;;;;9.87;34.86;96708.91;5077264;28;20183;-68
2022/02/14 01:59:16;;;;;;;6.80;3.93;;;;;;;9.98;34.81;96705.97;5112096;28;20215;-69
2022/02/14 02:01:41;;;;;;;4.97;4.10;;;;;;;10.02;34.29;96708.28;5112051;28;20281;-68
2022/02/14 02:04:07;;;;;;;7.03;4.23;;;;;;;9.91;34.69;96710.22;5112492;28;20259;-68
2022/02/14 02:06:33;;;;;;;4.67;3.60;;;;;;;10.01;34.30;96698.78;5112272;28;20557;-68
2022/02/14 02:08:59;;;;;;;8.73;3.57;;;;;;;9.97;34.41;96693.88;5112080;28;20217;-69
2022/02/14 02:14:09;;;;;;;4.90;3.50;;;;;;;9.93;33.59;96691.75;5112214;28;20843;-68
2022/02/14 02:16:34;;;;;;;4.20;3.60;;;;;;;9.97;33.99;96693.88;5112127;28;20424;-68
2022/02/14 02:19:00;;;;;;;3.87;3.47;;;;;;;9.96;33.99;96687.00;5111879;28;20231;-68
2022/02/14 02:21:25;;;;;;;3.87;3.23;;;;;;;9.99;34.06;96689.28;5111634;28;20180;-69
2022/02/14 02:23:56;;;;;;;5.83;4.10;;;;;;;9.81;33.71;96686.81;5112091;28;20201;-68
2022/02/14 02:26:28;;;;;;;5.87;3.97;;;;;;;9.73;33.93;96672.88;5112132;28;20645;-68
2022/02/14 02:28:54;;;;;;;4.87;3.50;;;;;;;9.85;34.03;96676.84;5104004;28;20430;-68
2022/02/14 02:31:19;;;;;;;8.70;3.67;;;;;;;9.90;33.78;96665.88;5112132;28;21023;-68
2022/02/14 02:33:45;;;;;;;4.77;3.90;;;;;;;9.88;33.78;96666.06;5111720;28;20180;-68
2022/02/14 02:36:10;;;;;;;5.63;3.67;;;;;;;9.87;33.47;96661.00;5111801;28;20172;-69
2022/02/14 02:38:36;;;;;;;6.53;3.17;;;;;;;9.98;33.42;96652.81;5111235;28;20185;-69
2022/02/14 02:41:01;;;;;;;5.90;3.87;;;;;;;10.05;33.26;96645.94;5111718;28;20184;-68
2022/02/14 02:43:28;;;;;;;5.07;3.40;;;;;;;10.01;32.80;96643.81;5111607;28;20185;-68
2022/02/14 02:45:56;;;;;;;4.63;2.70;;;;;;;10.05;32.76;96640.72;5111894;28;20183;-68
2022/02/14 02:48:23;;;;;;;4.50;3.50;;;;;;;10.09;32.57;96642.03;5111290;28;20413;-68
2022/02/14 02:51:02;;;;;;;3.70;3.13;;;;;;;10.17;32.48;96633.34;5111245;28;20763;-67
2022/02/14 02:53:32;;;;;;;4.43;3.00;;;;;;;10.10;31.67;96630.56;5111070;28;20414;-69
2022/02/14 02:55:58;;;;;;;4.07;3.20;;;;;;;10.20;31.75;96626.97;5111720;28;20423;-68
2022/02/14 02:58:24;;;;;;;3.83;2.80;;;;;;;10.02;31.29;96620.09;5110890;28;20521;-69
2022/02/14 03:00:49;;;;;;;3.93;3.50;;;;;;;9.97;31.55;96620.56;5111219;28;20458;-68
2022/02/14 03:03:15;;;;;;;3.37;2.60;;;;;;;10.01;31.41;96613.25;5111335;28;20182;-68
2022/02/14 03:05:40;;;;;;;4.63;2.63;;;;;;;10.08;31.38;96603.72;5094257;28;20180;-68
2022/02/14 03:08:06;;;;;;;3.20;2.43;;;;;;;10.10;31.19;96607.00;5111051;28;20257;-68
2022/02/14 03:10:31;;;;;;;4.47;2.80;;;;;;;10.06;30.81;96604.88;5111309;28;20196;-69
2022/02/14 03:12:57;;;;;;;4.47;2.53;;;;;;;10.19;30.86;96594.75;5111532;28;20744;-69
2022/02/14 03:15:22;;;;;;;3.17;2.70;;;;;;;10.11;30.79;96602.56;5111545;28;20267;-69
2022/02/14 03:17:48;;;;;;;3.40;2.80;;;;;;;10.15;30.74;96599.47;5110989;28;20230;-69
2022/02/14 03:20:13;;;;;;;3.20;2.70;;;;;;;10.11;30.93;96594.72;5111203;28;20621;-68
2022/02/14 03:22:39;;;;;;;5.33;2.67;;;;;;;10.09;30.30;96591.44;5110437;28;20191;-68
2022/02/14 03:25:04;;;;;;;3.40;2.40;;;;;;;10.06;30.54;96586.56;5111422;28;20184;-69
2022/02/14 03:27:30;;;;;;;3.30;2.40;;;;;;;10.12;30.41;96593.75;5111453;28;20183;-69
2022/02/14 03:29:55;;;;;;;2.60;2.40;;;;;;;10.01;30.12;96588.84;5111160;28;20249;-67
2022/02/14 03:32:21;;;;;;;2.87;2.20;;;;;;;9.89;30.23;96590.97;5111026;28;20264;-68
2022/02/14 03:34:46;;;;;;;5.87;2.70;;;;;;;9.88;30.54;96586.72;5111216;28;20306;-68
2022/02/14 03:37:12;;;;;;;5.63;2.83;;;;;;;10.00;30.46;96585.41;5106597;28;20266;-68
2022/02/14 03:39:37;;;;;;;3.30;2.80;;;;;;;10.03;30.04;96579.03;5110628;28;20352;-69
2022/02/14 03:42:03;;;;;;;4.80;2.60;;;;;;;9.97;30.23;96583.13;5111324;28;20177;-69
2022/02/14 03:44:28;;;;;;;3.50;2.67;;;;;;;10.03;30.13;96584.25;5110952;28;20210;-68
2022/02/14 03:46:54;;;;;;;3.80;2.47;;;;;;;10.06;29.95;96579.50;5111086;28;20178;-68
2022/02/14 03:49:19;;;;;;;4.27;2.70;;;;;;;10.08;30.16;96576.75;5110689;28;20200;-69
2022/02/14 03:51:45;;;;;;;4.50;2.30;;;;;;;10.10;29.88;96572.13;5110484;28;20197;-68
2022/02/14 03:54:10;;;;;;;3.67;2.37;;;;;;;9.92;30.26;96572.31;5110927;28;20266;-68
2022/02/14 03:56:36;;;;;;;2.53;2.23;;;;;;;9.99;29.96;96578.53;5110945;28;20623;-68
2022/02/14 03:59:01;;;;;;;3.30;2.70;;;;;;;9.98;29.73;96579.53;5110815;28;20301;-69
2022/02/14 04:01:27;;;;;;;3.37;2.70;;;;;;;9.98;29.90;96571.66;5110631;28;20196;-69
2022/02/14 04:03:52;;;;;;;2.80;2.53;;;;;;;10.08;29.83;96571.50;5113871;28;20180;-69
2022/02/14 04:06:18;;;;;;;3.73;2.20;;;;;;;10.09;29.86;96568.72;5107439;27;20177;-67
2022/02/14 04:08:43;;;;;;;3.23;2.50;;;;;;;9.99;29.69;96562.84;5110102;28;20235;-69
2022/02/14 04:11:09;;;;;;;4.07;2.57;;;;;;;10.13;29.82;96569.19;5114623;28;20179;-68
2022/02/14 04:13:35;;;;;;;3.57;2.47;;;;;;;10.15;29.33;96567.25;5114352;28;20640;-69
2022/02/14 04:16:00;;;;;;;4.30;2.80;;;;;;;10.19;29.23;96560.69;5113974;28;20676;-67
2022/02/14 04:18:26;;;;;;;3.07;2.30;;;;;;;10.13;29.73;96564.81;5114435;28;20180;-69
2022/02/14 04:20:51;;;;;;;3.10;2.63;;;;;;;10.02;29.08;96562.50;5114790;28;20545;-68
2022/02/14 04:23:17;;;;;;;3.70;2.47;;;;;;;10.12;29.24;96571.00;5096378;28;20549;-69
2022/02/14 04:25:42;;;;;;;4.33;2.23;;;;;;;10.14;29.54;96568.22;5114524;28;20211;-69
2022/02/14 04:28:08;;;;;;;7.07;2.37;;;;;;;10.23;28.96;96561.97;5114491;28;20183;-69
2022/02/14 04:30:34;;;;;;;4.33;2.43;;;;;;;10.26;29.19;96569.50;5114611;28;20189;-68
2022/02/14 04:33:00;;;;;;;4.40;2.70;;;;;;;10.22;29.04;96562.97;5114500;28;20174;-68
2022/02/14 04:35:28;;;;;;;5.40;2.67;;;;;;;10.17;28.90;96565.28;5114410;28;20435;-68
2022/02/14 04:37:54;;;;;;;4.90;2.50;;;;;;;10.18;29.05;96566.91;5110910;28;20595;-69
2022/02/14 04:40:21;;;;;;;8.30;3.00;;;;;;;10.25;28.93;96567.88;5114042;28;20549;-69
2022/02/14 04:42:47;;;;;;;3.17;2.40;;;;;;;10.21;29.09;96569.19;5103733;28;20429;-69
2022/02/14 04:45:12;;;;;;;4.20;2.50;;;;;;;10.23;29.69;96564.59;5114046;28;20417;-68
2022/02/14 04:47:38;;;;;;;3.07;2.50;;;;;;;10.30;29.59;96568.22;5113459;28;20192;-69
2022/02/14 04:50:04;;;;;;;6.97;2.40;;;;;;;10.35;29.03;96556.41;5113487;28;20192;-70
2022/02/14 04:52:29;;;;;;;4.37;2.53;;;;;;;10.32;29.23;96559.38;5113522;28;20184;-69
2022/02/14 04:54:54;;;;;;;3.10;2.80;;;;;;;10.28;30.30;96557.06;5114067;28;20454;-69
2022/02/14 04:57:20;;;;;;;2.80;2.50;;;;;;;10.22;30.59;96557.72;5113705;28;20196;-69
2022/02/14 04:59:45;;;;;;;5.63;3.27;;;;;;;10.15;30.61;96569.84;5112924;28;20207;-69
2022/02/14 05:02:11;;;;;;;5.57;3.70;;;;;;;10.05;30.72;96559.56;5113345;28;20186;-69
2022/02/14 05:04:36;;;;;;;8.97;3.70;;;;;;;10.04;31.58;96560.53;5112951;28;20181;-69
2022/02/14 05:07:02;;;;;;;5.93;3.03;;;;;;;10.02;31.19;96556.44;5113645;28;20177;-69
2022/02/14 05:09:27;;;;;;;7.27;3.40;;;;;;;10.05;32.01;96550.88;5112793;28;20204;-69
2022/02/14 05:11:53;;;;;;;5.60;3.30;;;;;;;10.07;31.70;96548.94;5113160;28;20181;-68
2022/02/14 05:14:19;;;;;;;4.67;3.53;;;;;;;9.97;32.06;96549.91;5112411;28;20663;-68
2022/02/14 05:16:45;;;;;;;9.23;3.50;;;;;;;9.79;33.02;96557.91;5113047;28;20192;-68
2022/02/14 05:19:10;;;;;;;6.30;3.53;;;;;;;9.82;33.45;96547.13;5112715;28;20520;-69
2022/02/14 05:21:35;;;;;;;6.00;3.53;;;;;;;9.83;32.90;96553.16;5112856;28;20245;-69
2022/02/14 05:24:01;;;;;;;4.77;3.30;;;;;;;9.74;33.44;96554.16;5113298;28;20197;-69
2022/02/14 05:26:26;;;;;;;4.20;2.87;;;;;;;9.74;33.17;96554.16;5113039;28;20184;-69
2022/02/14 05:28:55;;;;;;;6.50;2.97;;;;;;;9.63;33.47;96545.66;5112732;28;20202;-69
2022/02/14 05:31:24;;;;;;;5.80;3.33;;;;;;;9.65;33.41;96546.31;5112686;28;20552;-69
2022/02/14 05:33:50;;;;;;;4.23;3.03;;;;;;;9.68;33.44;96542.53;5113201;28;20423;-69
2022/02/14 05:36:18;;;;;;;5.27;3.37;;;;;;;9.68;33.25;96553.00;5113060;28;20426;-68
2022/02/14 05:38:43;;;;;;;9.57;3.83;;;;;;;9.61;33.38;96554.66;5101898;28;20245;-69
2022/02/14 05:41:09;;;;;;;5.30;4.10;;;;;;;9.40;34.11;96550.66;5112316;28;20419;-69
2022/02/14 05:43:34;;;;;;;11.80;6.17;;;;;;;9.42;34.19;96553.16;5112561;28;20609;-68
2022/02/14 05:46:00;;;;;;;13.00;7.70;;;;;;;9.43;34.30;96549.56;5102552;28;20175;-69
2022/02/14 05:48:26;;;;;;;17.83;8.90;;;;;;;9.41;33.97;96548.91;5112286;28;20268;-69
2022/02/14 05:50:54;;;;;;;16.97;10.20;;;;;;;9.32;34.42;96546.28;5112552;28;20658;-68
2022/02/14 05:53:20;;;;;;;15.77;6.20;;;;;;;9.37;33.16;96549.22;5112922;28;20778;-69
2022/02/14 05:55:45;;;;;;;7.60;4.23;;;;;;;9.26;32.06;96549.50;5112348;28;20425;-69
2022/02/14 05:58:10;;;;;;;13.70;4.07;;;;;;;9.47;32.24;96553.47;5112066;28;20188;-69
2022/02/14 06:00:36;;;;;;;7.50;3.93;;;;;;;9.53;31.70;96552.84;5111472;28;20247;-68
2022/02/14 06:03:01;;;;;;;5.20;3.20;;;;;;;9.63;32.10;96557.94;5112612;28;20222;-68
2022/02/14 06:05:27;;;;;;;5.23;3.43;;;;;;;9.66;31.85;96549.72;5112330;28;20652;-68
2022/02/14 06:07:52;;;;;;;11.63;6.90;;;;;;;9.68;32.23;96561.69;5108358;28;20175;-68
2022/02/14 06:10:18;;;;;;;11.50;7.10;;;;;;;9.72;32.28;96566.56;5111984;28;20226;-69
2022/02/14 06:12:43;;;;;;;18.90;10.77;;;;;;;9.76;32.27;96568.72;5111563;28;20829;-69
2022/02/14 06:15:09;;;;;;;8.23;5.40;;;;;;;9.78;32.04;96571.16;5111652;28;20267;-69
2022/02/14 06:17:34;;;;;;;10.63;6.53;;;;;;;9.76;31.94;96563.50;5109783;27;20191;-68
2022/02/14 06:20:00;;;;;;;8.20;5.13;;;;;;;9.80;31.88;96569.22;5111893;28;20202;-69
2022/02/14 06:22:25;;;;;;;13.27;5.87;;;;;;;9.78;31.88;96571.16;5112013;28;20560;-69
2022/02/14 06:24:51;;;;;;;9.03;3.90;;;;;;;9.72;31.65;96567.41;5112160;28;20652;-69
2022/02/14 06:27:16;;;;;;;8.80;3.80;;;;;;;9.84;32.00;96567.88;5101476;28;20186;-69
2022/02/14 06:29:42;;;;;;;8.03;5.27;;;;;;;9.87;32.61;96567.56;5111523;28;20205;-69
2022/02/14 06:32:07;;;;;;;7.27;3.70;;;;;;;9.86;32.29;96573.78;5112037;28;20174;-68
2022/02/14 06:34:33;;;;;;;5.73;2.73;;;;;;;9.80;32.04;96564.78;5111838;28;20262;-69
2022/02/14 06:37:00;;;;;;;6.43;2.87;;;;;;;9.92;31.46;96573.16;5111917;28;20656;-69
2022/02/14 06:39:25;;;;;;;18.70;3.30;;;;;;;9.97;31.56;96565.59;5111360;28;20683;-69
2022/02/14 06:41:50;;;;;;;3.20;2.67;;;;;;;9.88;31.66;96565.78;5111902;28;20473;-69
2022/02/14 06:44:16;;;;;;;7.63;2.80;;;;;;;9.81;31.35;96566.44;5111611;28;20182;-68
2022/02/14 06:46:42;;;;;;;8.03;2.70;;;;;;;9.92;31.76;96572.31;5111471;28;20180;-68
2022/02/14 06:49:07;;;;;;;8.33;3.40;;;;;;;9.92;31.26;96573.16;5117505;27;20194;-68
2022/02/14 06:51:35;;;;;;;5.90;3.27;;;;;;;9.94;31.66;96571.19;5101860;28;20462;-68
2022/02/14 06:54:01;;;;;;;9.30;3.67;;;;;;;9.99;32.10;96574.13;5108655;28;20187;-68
2022/02/14 06:56:26;;;;;;;5.53;3.43;;;;;;;9.87;31.76;96570.19;5111325;28;20414;-68
2022/02/14 06:58:52;;;;;;;5.07;3.10;;;;;;;9.98;31.58;96574.28;5110955;28;20216;-67
2022/02/14 07:01:17;;;;;;;16.90;3.80;;;;;;;9.85;32.06;96580.00;5111088;28;20310;-66
2022/02/14 07:03:43;;;;;;;8.60;4.10;;;;;;;10.05;31.66;96582.31;5111484;28;20268;-68
2022/02/14 07:06:08;;;;;;;7.13;3.20;;;;;;;10.02;32.09;96572.16;5111685;28;20855;-67
2022/02/14 07:08:34;;;;;;;7.47;4.37;;;;;;;9.97;31.54;96572.66;5111032;28;20179;-67
2022/02/14 07:11:00;;;;;;;5.87;3.40;;;;;;;10.03;31.74;96579.84;5111457;28;20178;-67
2022/02/14 07:13:26;;;;;;;3.60;2.90;;;;;;;10.07;31.77;96572.50;5110661;28;20429;-67
2022/02/14 07:15:52;;;;;;;8.27;3.03;;;;;;;10.08;31.83;96576.75;5111354;28;21129;-70
2022/02/14 07:18:17;;;;;;;6.00;3.20;;;;;;;10.10;31.60;96586.06;5110975;28;20869;-68
2022/02/14 07:20:43;;;;;;;8.43;3.67;;;;;;;10.07;32.11;96588.19;5111030;28;20291;-68
2022/02/14 07:23:09;;;;;;;6.40;4.10;;;;;;;10.10;31.86;96580.00;5111101;28;20180;-68
2022/02/14 07:25:35;;;;;;;7.87;3.80;;;;;;;10.09;31.82;96583.59;5111019;28;20178;-69
2022/02/14 07:28:01;;;;;;;7.90;4.70;;;;;;;10.13;31.97;96582.28;5110032;28;20427;-68
2022/02/14 07:30:26;;;;;;;5.57;3.73;;;;;;;10.25;31.78;96577.56;5110797;28;20275;-68
2022/02/14 07:32:52;;;;;;;7.50;3.93;;;;;;;10.35;31.92;96587.81;5111463;28;20472;-68
2022/02/14 07:35:18;;;;;;;6.70;3.80;;;;;;;10.43;31.82;96590.50;5111170;28;20224;-66
2022/02/14 07:37:44;;;;;;;5.37;3.60;;;;;;;10.46;31.90;96587.50;5111984;28;20174;-68
2022/02/14 07:40:11;;;;;;;11.87;4.33;;;;;;;10.49;32.39;96589.81;5114915;28;20464;-68
2022/02/14 07:42:37;;;;;;;11.80;4.70;;;;;;;10.54;32.13;96591.91;5114980;28;20477;-67
2022/02/14 07:45:03;;;;;;;10.43;4.20;;;;;;;10.60;31.93;96593.88;5114994;28;20411;-69
2022/02/14 07:47:28;;;;;;;11.30;4.13;;;;;;;10.63;32.32;96587.47;5120988;27;20715;-68
2022/02/14 07:49:54;;;;;;;18.00;4.20;;;;;;;10.72;32.10;96596.94;5114900;28;20423;-68
2022/02/14 07:52:20;;;;;;;10.83;3.30;;;;;;;10.78;31.80;96593.69;5113903;28;20610;-68
2022/02/14 07:54:45;;;;;;;12.43;4.33;;;;;;;10.86;31.76;96593.63;5111945;28;20581;-68
2022/02/14 07:57:11;;;;;;;6.87;4.00;;;;;;;10.94;31.97;96581.50;5114349;28;20715;-68
2022/02/14 07:59:37;;;;;;;6.83;3.53;;;;;;;11.00;32.05;96592.13;5114154;27;20310;-67
2022/02/14 08:02:02;;;;;;;11.93;4.40;;;;;;;11.09;32.05;96579.78;5114972;28;20176;-69
2022/02/14 08:04:28;;;;;;;8.93;3.83;;;;;;;11.14;32.13;96582.72;5114716;28;20816;-66
2022/02/14 08:06:53;;;;;;;12.03;3.37;;;;;;;11.24;31.89;96577.28;5115208;28;20177;-68
2022/02/14 08:09:18;;;;;;;7.67;3.60;;;;;;;11.26;31.97;96572.69;5114850;28;20211;-67
2022/02/14 08:11:44;;;;;;;6.00;3.40;;;;;;;11.36;32.11;96577.69;5114507;28;20208;-68
2022/02/14 08:14:10;;;;;;;8.23;3.87;;;;;;;11.27;31.37;96565.63;5114596;28;20234;-68
2022/02/14 08:16:36;;;;;;;10.03;3.30;;;;;;;11.57;32.09;96560.53;5114425;28;20649;-68
2022/02/14 08:19:02;;;;;;;11.20;4.40;;;;;;;11.80;31.73;96560.50;5120289;27;20208;-68
2022/02/14 08:21:29;;;;;;;4.90;3.20;;;;;;;12.02;31.43;96564.16;5096705;28;20241;-68
2022/02/14 08:23:55;;;;;;;7.87;3.20;;;;;;;12.25;31.09;96565.91;5114352;28;20784;-68
2022/02/14 08:26:21;;;;;;;7.00;3.47;;;;;;;12.59;30.41;96567.25;5114164;28;20419;-68
2022/02/14 08:28:46;;;;;;;8.00;3.20;;;;;;;12.83;29.81;96562.72;5103626;28;20194;-68
2022/02/14 08:31:12;;;;;;;7.17;3.60;;;;;;;12.89;29.99;96564.59;5114328;28;20173;-70
2022/02/14 08:33:38;;;;;;;5.87;3.27;;;;;;;13.36;29.48;96559.91;5114083;28;20669;-67
2022/02/14 08:36:05;;;;;;;4.63;3.17;;;;;;;13.73;28.85;96559.91;5114174;28;20245;-68
2022/02/14 08:38:31;;;;;;;7.37;3.03;;;;;;;13.84;28.19;96559.41;5109358;28;20178;-67
2022/02/14 08:40:57;;;;;;;3.90;2.90;;;;;;;14.17;28.25;96558.06;5113829;28;20961;-69
2022/02/14 08:43:22;;;;;;;8.00;3.90;;;;;;;14.40;28.17;96556.00;5114223;28;20184;-69
2022/02/14 08:45:47;;;;;;;14.63;3.50;;;;;;;14.66;27.58;96562.44;5104018;28;20173;-69
2022/02/14 08:48:14;;;;;;;5.13;3.10;;;;;;;14.92;27.14;96570.72;5113687;27;20169;-69
2022/02/14 08:50:41;;;;;;;10.07;2.90;;;;;;;15.03;27.02;96575.44;5112664;28;20204;-69
2022/02/14 08:53:06;;;;;;;8.70;3.60;;;;;;;15.11;26.90;96562.09;5113984;27;20426;-69
2022/02/14 08:55:32;;;;;;;6.47;2.93;;;;;;;15.23;26.87;96551.78;5113495;28;20459;-69
2022/02/14 08:57:57;;;;;;;5.47;2.90;;;;;;;15.33;26.61;96548.78;5113433;28;20581;-69
2022/02/14 09:00:23;;;;;;;7.50;2.97;;;;;;;15.85;26.30;96550.94;5113559;28;20283;-69
2022/02/14 09:02:48;;;;;;;12.87;3.50;;;;;;;16.22;26.02;96540.78;5113659;28;20176;-69
2022/02/14 09:05:14;;;;;;;7.10;3.17;;;;;;;16.27;25.76;96543.59;5113637;28;20393;-69
2022/02/14 09:07:40;;;;;;;8.23;3.10;;;;;;;16.60;25.57;96553.34;5113342;28;20276;-69
2022/02/14 09:10:06;;;;;;;7.17;3.10;;;;;;;16.65;25.24;96535.00;5113249;28;20530;-69
2022/02/14 09:12:31;;;;;;;6.03;2.77;;;;;;;16.92;25.17;96534.94;5097922;28;20656;-69
2022/02/14 09:14:58;;;;;;;10.30;3.20;;;;;;;17.02;25.27;96545.91;5115471;28;20181;-69
2022/02/14 09:17:25;;;;;;;9.73;3.30;;;;;;;17.04;24.41;96537.78;5120950;27;20180;-70
2022/02/14 09:19:51;;;;;;;5.10;2.60;;;;;;;16.90;24.71;96534.31;5106526;28;20461;-70
2022/02/14 09:22:16;;;;;;;3.60;2.70;;;;;;;17.04;25.18;96540.44;5115018;28;20423;-69
2022/02/14 09:24:42;;;;;;;6.53;2.87;;;;;;;17.32;24.96;96528.69;5114547;28;20205;-70
2022/02/14 09:27:07;;;;;;;11.80;3.00;;;;;;;17.57;24.43;96523.44;5115833;28;20234;-69
2022/02/14 09:29:33;;;;;;;6.60;2.67;;;;;;;17.32;24.98;96521.56;5112936;28;20280;-69
2022/02/14 09:31:58;;;;;;;5.17;2.80;;;;;;;16.92;25.25;96515.59;5113150;28;20184;-69
2022/02/14 09:34:24;;;;;;;10.60;3.30;;;;;;;16.59;25.84;96517.34;5113046;28;20716;-70
2022/02/14 09:36:53;;;;;;;7.40;2.97;;;;;;;16.46;26.20;96530.59;5113038;28;20553;-69
2022/02/14 09:39:19;;;;;;;6.73;3.33;;;;;;;16.16;26.71;96520.44;5112392;28;20284;-69
2022/02/14 09:41:45;;;;;;;6.23;3.13;;;;;;;16.28;26.88;96524.91;5112821;28;20431;-69
2022/02/14 09:44:10;;;;;;;13.13;3.13;;;;;;;16.48;27.00;96517.97;5113248;28;20427;-69
2022/02/14 09:46:36;;;;;;;8.90;3.30;;;;;;;16.00;27.40;96514.56;5102925;28;20734;-69
2022/02/14 09:49:03;;;;;;;7.40;3.43;;;;;;;15.99;27.69;96514.75;5096362;28;20251;-69
2022/02/14 09:51:30;;;;;;;7.33;2.57;;;;;;;15.70;27.93;96514.09;5112468;28;20541;-69
2022/02/14 09:53:56;;;;;;;7.17;3.07;;;;;;;15.28;28.29;96519.50;5112411;28;20408;-68
2022/02/14 09:56:22;;;;;;;11.50;3.00;;;;;;;15.60;27.96;96509.22;5112514;28;20914;-68
2022/02/14 09:58:48;;;;;;;8.30;3.30;;;;;;;15.68;28.15;96516.94;5112036;28;20443;-68
2022/02/14 10:01:15;;;;;;;8.03;2.83;;;;;;;15.74;28.09;96512.69;5112546;28;20176;-68
2022/02/14 10:03:52;;;;;;;5.23;2.90;;;;;;;15.72;28.36;96504.97;5112165;28;20422;-68
2022/02/14 10:06:28;;;;;;;9.20;2.97;;;;;;;15.68;28.58;96503.75;5112315;28;20419;-68
2022/02/14 10:09:11;;;;;;;5.00;2.90;;;;;;;15.73;28.62;96517.16;5104235;28;20510;-68
2022/02/14 10:11:42;;;;;;;7.40;2.90;;;;;;;15.56;29.07;96516.75;5112204;28;20487;-68
2022/02/14 10:14:18;;;;;;;10.03;2.77;;;;;;;15.54;29.32;96523.22;5102517;28;20427;-67
2022/02/14 10:17:05;;;;;;;5.73;2.30;;;;;;;15.18;30.01;96514.63;5112270;28;20430;-69
2022/02/14 10:19:32;;;;;;;6.10;3.10;;;;;;;15.58;30.28;96508.59;5114211;27;20463;-69
2022/02/14 10:21:58;;;;;;;13.70;3.73;;;;;;;15.85;29.83;96503.38;5112175;28;20851;-69
2022/02/14 10:24:25;;;;;;;7.47;3.13;;;;;;;15.80;29.75;96512.69;5112182;28;20417;-69
2022/02/14 10:26:52;;;;;;;6.57;3.97;;;;;;;15.60;30.14;96507.38;5103844;28;20415;-68
2022/02/14 10:29:27;;;;;;;9.60;3.50;;;;;;;15.70;30.30;96512.28;5111518;28;20943;-68
2022/02/14 10:31:58;;;;;;;4.37;2.70;;;;;;;15.79;30.49;96512.91;5104134;28;20483;-68
2022/02/14 10:34:32;;;;;;;3.97;2.50;;;;;;;15.90;30.47;96516.78;5102466;28;20776;-68
2022/02/14 10:36:58;;;;;;;8.90;2.67;;;;;;;15.76;30.95;96515.94;5104914;28;20447;-69
2022/02/14 10:39:25;;;;;;;5.03;2.73;;;;;;;15.89;30.77;96504.59;5111419;28;20455;-68
2022/02/14 10:42:02;;;;;;;4.33;2.53;;;;;;;15.72;31.52;96510.25;5103455;28;20271;-69
2022/02/14 10:47:19;;;;;;;11.67;2.57;;;;;;;16.05;31.46;96509.47;5116269;27;20430;-70
2022/02/14 10:49:56;;;;;;;5.93;2.23;;;;;;;15.96;31.84;96515.97;5112063;27;20934;-69
2022/02/14 10:52:21;;;;;;;6.40;2.37;;;;;;;16.11;31.62;96503.38;5111508;28;20504;-69
2022/02/14 10:54:47;;;;;;;8.03;2.80;;;;;;;16.29;31.55;96499.28;5111623;28;20421;-69
2022/02/14 10:57:31;;;;;;;5.70;2.40;;;;;;;16.24;31.97;96491.97;5111593;28;20265;-69
2022/02/14 10:59:59;;;;;;;9.60;2.80;;;;;;;16.27;31.89;96498.66;5103904;28;20243;-69
2022/02/14 11:02:25;;;;;;;6.13;2.50;;;;;;;16.42;31.90;96493.97;5111701;28;20423;-68
2022/02/14 11:04:50;;;;;;;6.10;2.60;;;;;;;16.39;32.28;96499.66;5103198;28;20423;-69
2022/02/14 11:07:17;;;;;;;7.57;2.53;;;;;;;16.57;31.91;96485.78;5111739;28;20522;-68
2022/02/14 11:09:49;;;;;;;3.83;2.60;;;;;;;16.70;31.76;96479.66;5110447;28;20237;-69
2022/02/14 11:12:18;;;;;;;4.88;2.40;;;;;;;16.70;32.39;96492.88;5109939;28;20411;-69
2022/02/14 11:14:46;;;;;;;6.80;2.40;;;;;;;16.62;31.95;96481.72;5100653;28;20215;-69
2022/02/14 11:17:12;;;;;;;5.47;2.20;;;;;;;16.65;32.26;96490.03;5101829;28;20455;-69
2022/02/14 11:19:39;;;;;;;4.60;1.93;;;;;;;16.47;33.36;96490.69;5110510;28;20925;-69
2022/02/14 11:22:05;;;;;;;6.23;1.83;;;;;;;16.29;33.80;96483.41;5111787;28;20426;-68
2022/02/14 11:24:33;;;;;;;7.07;2.07;;;;;;;16.45;33.80;96482.16;5111213;28;20419;-68
2022/02/14 11:27:05;;;;;;;5.87;2.23;;;;;;;16.47;34.20;96481.97;5111573;28;20173;-69
2022/02/14 11:29:43;;;;;;;3.47;1.83;;;;;;;16.50;34.56;96474.41;5101187;28;20443;-68
2022/02/14 11:32:26;;;;;;;4.20;2.17;;;;;;;16.42;35.07;96483.38;5101689;28;20422;-68
2022/02/14 11:34:55;;;;;;;11.00;2.37;;;;;;;16.47;34.44;96474.03;5103404;28;20437;-68
2022/02/14 11:37:21;;;;;;;4.50;1.93;;;;;;;15.95;34.98;96474.72;5112534;28;20411;-69